createdAt,value
2016-08-17T00:00:08.994Z,16
2016-08-17T00:00:18.989Z,16
2016-08-17T00:00:29.000Z,16
2016-08-17T00:00:38.993Z,16
2016-08-17T00:00:48.999Z,16
2016-08-17T00:00:59.001Z,16
2016-08-17T00:01:09.011Z,16
2016-08-17T00:01:19.011Z,16
2016-08-17T00:01:28.281Z,16
2016-08-17T00:01:39.019Z,16
2016-08-17T00:01:49.020Z,16
2016-08-17T00:01:59.019Z,16
2016-08-17T00:02:09.027Z,16
2016-08-17T00:02:19.026Z,16
2016-08-17T00:02:28.302Z,16
2016-08-17T00:02:39.033Z,16
2016-08-17T00:02:49.038Z,16
2016-08-17T00:02:58.307Z,16
2016-08-17T00:03:09.045Z,16
2016-08-17T00:03:19.049Z,16
2016-08-17T00:03:29.062Z,16
2016-08-17T00:03:39.054Z,16
2016-08-17T00:03:49.053Z,16
2016-08-17T00:03:59.065Z,16
2016-08-17T00:04:09.069Z,16
2016-08-17T00:04:19.067Z,16
2016-08-17T00:04:29.070Z,16
2016-08-17T00:04:39.080Z,16
2016-08-17T00:04:49.076Z,16
2016-08-17T00:04:59.075Z,16
2016-08-17T00:05:09.083Z,16
2016-08-17T00:05:19.085Z,15.9
2016-08-17T00:05:29.087Z,16
2016-08-17T00:05:39.093Z,15.9
2016-08-17T00:05:49.102Z,15.9
2016-08-17T00:05:59.098Z,15.9
2016-08-17T00:06:09.102Z,15.9
2016-08-17T00:06:19.103Z,15.9
2016-08-17T00:06:29.108Z,15.9
2016-08-17T00:06:39.113Z,15.9
2016-08-17T00:06:49.110Z,15.9
2016-08-17T00:06:59.116Z,15.9
2016-08-17T00:07:09.120Z,15.9
2016-08-17T00:07:19.124Z,15.9
2016-08-17T00:07:29.131Z,15.9
2016-08-17T00:07:39.131Z,15.9
2016-08-17T00:07:49.137Z,15.9
2016-08-17T00:07:59.133Z,15.9
2016-08-17T00:08:09.143Z,15.9
2016-08-17T00:08:19.204Z,15.9
2016-08-17T00:08:29.143Z,15.9
2016-08-17T00:08:39.145Z,15.9
2016-08-17T00:08:49.150Z,15.9
2016-08-17T00:08:59.158Z,15.9
2016-08-17T00:09:09.160Z,15.9
2016-08-17T00:09:19.164Z,15.9
2016-08-17T00:09:29.165Z,15.9
2016-08-17T00:09:39.174Z,15.9
2016-08-17T00:09:49.173Z,15.9
2016-08-17T00:09:59.172Z,15.9
2016-08-17T00:10:09.178Z,15.9
2016-08-17T00:10:19.182Z,15.9
2016-08-17T00:10:29.182Z,15.9
2016-08-17T00:10:39.184Z,15.9
2016-08-17T00:10:49.194Z,15.9
2016-08-17T00:10:59.194Z,15.9
2016-08-17T00:11:09.197Z,15.9
2016-08-17T00:11:19.200Z,15.9
2016-08-17T00:11:29.205Z,15.9
2016-08-17T00:11:39.207Z,15.9
2016-08-17T00:11:49.208Z,15.9
2016-08-17T00:11:59.213Z,15.9
2016-08-17T00:12:09.222Z,15.9
2016-08-17T00:12:19.222Z,15.9
2016-08-17T00:12:29.219Z,15.9
2016-08-17T00:12:39.224Z,15.9
2016-08-17T00:12:49.225Z,15.9
2016-08-17T00:12:59.231Z,15.9
2016-08-17T00:13:09.234Z,15.9
2016-08-17T00:13:19.237Z,15.9
2016-08-17T00:13:29.244Z,15.9
2016-08-17T00:13:39.242Z,15.9
2016-08-17T00:13:49.254Z,15.9
2016-08-17T00:13:59.254Z,15.9
2016-08-17T00:14:09.265Z,15.9
2016-08-17T00:14:19.257Z,15.9
2016-08-17T00:14:29.260Z,15.9
2016-08-17T00:14:39.273Z,15.9
2016-08-17T00:14:49.273Z,15.9
2016-08-17T00:14:59.273Z,15.9
2016-08-17T00:15:09.275Z,15.9
2016-08-17T00:15:19.274Z,15.9
2016-08-17T00:15:28.545Z,15.9
2016-08-17T00:15:39.282Z,15.9
2016-08-17T00:15:49.287Z,15.9
2016-08-17T00:15:59.289Z,15.9
2016-08-17T00:16:09.291Z,15.9
2016-08-17T00:16:19.295Z,15.9
2016-08-17T00:16:29.299Z,15.9
2016-08-17T00:16:39.299Z,15.9
2016-08-17T00:16:49.301Z,15.9
2016-08-17T00:16:59.315Z,15.9
2016-08-17T00:17:09.309Z,15.9
2016-08-17T00:17:19.318Z,15.9
2016-08-17T00:17:29.317Z,15.9
2016-08-17T00:17:39.319Z,15.9
2016-08-17T00:17:49.339Z,15.9
2016-08-17T00:17:59.325Z,15.9
2016-08-17T00:18:09.332Z,15.9
2016-08-17T00:18:19.329Z,15.9
2016-08-17T00:18:29.337Z,15.9
2016-08-17T00:18:39.340Z,15.9
2016-08-17T00:18:49.344Z,15.9
2016-08-17T00:18:58.624Z,15.9
2016-08-17T00:19:09.347Z,15.9
2016-08-17T00:19:19.348Z,15.9
2016-08-17T00:19:29.352Z,15.9
2016-08-17T00:19:39.353Z,15.9
2016-08-17T00:19:49.360Z,15.9
2016-08-17T00:19:59.366Z,15.9
2016-08-17T00:20:09.368Z,15.9
2016-08-17T00:20:19.371Z,15.9
2016-08-17T00:20:29.372Z,15.9
2016-08-17T00:20:39.377Z,15.9
2016-08-17T00:20:48.643Z,15.9
2016-08-17T00:20:59.382Z,15.9
2016-08-17T00:21:09.386Z,15.9
2016-08-17T00:21:19.388Z,15.8
2016-08-17T00:21:29.399Z,15.8
2016-08-17T00:21:39.401Z,15.8
2016-08-17T00:21:49.403Z,15.8
2016-08-17T00:21:59.404Z,15.8
2016-08-17T00:22:09.403Z,15.8
2016-08-17T00:22:19.408Z,15.8
2016-08-17T00:22:29.411Z,15.8
2016-08-17T00:22:39.418Z,15.8
2016-08-17T00:22:49.422Z,15.8
2016-08-17T00:22:59.424Z,15.8
2016-08-17T00:23:09.422Z,15.8
2016-08-17T00:23:19.430Z,15.8
2016-08-17T00:23:29.429Z,15.8
2016-08-17T00:23:39.434Z,15.8
2016-08-17T00:23:49.438Z,15.8
2016-08-17T00:23:59.443Z,15.8
2016-08-17T00:24:09.444Z,15.8
2016-08-17T00:24:19.447Z,15.8
2016-08-17T00:24:29.454Z,15.8
2016-08-17T00:24:39.452Z,15.8
2016-08-17T00:24:49.456Z,15.8
2016-08-17T00:24:59.457Z,15.8
2016-08-17T00:25:09.460Z,15.8
2016-08-17T00:25:19.463Z,15.8
2016-08-17T00:25:29.463Z,15.8
2016-08-17T00:25:38.739Z,15.8
2016-08-17T00:25:49.478Z,15.8
2016-08-17T00:25:59.484Z,15.8
2016-08-17T00:26:09.482Z,15.8
2016-08-17T00:26:19.485Z,15.8
2016-08-17T00:26:29.490Z,15.8
2016-08-17T00:26:39.497Z,15.8
2016-08-17T00:26:49.498Z,15.8
2016-08-17T00:26:58.768Z,15.8
2016-08-17T00:27:09.500Z,15.8
2016-08-17T00:27:19.501Z,15.8
2016-08-17T00:27:29.504Z,15.8
2016-08-17T00:27:39.508Z,15.8
2016-08-17T00:27:49.514Z,15.8
2016-08-17T00:27:59.515Z,15.8
2016-08-17T00:28:09.518Z,15.8
2016-08-17T00:28:19.528Z,15.8
2016-08-17T00:28:29.525Z,15.8
2016-08-17T00:28:39.530Z,15.8
2016-08-17T00:28:49.534Z,15.8
2016-08-17T00:28:59.536Z,15.8
2016-08-17T00:29:09.535Z,15.8
2016-08-17T00:29:19.543Z,15.8
2016-08-17T00:29:29.546Z,15.8
2016-08-17T00:29:39.553Z,15.8
2016-08-17T00:29:49.547Z,15.8
2016-08-17T00:29:59.552Z,15.8
2016-08-17T00:30:09.558Z,15.8
2016-08-17T00:30:19.560Z,15.8
2016-08-17T00:30:29.565Z,15.8
2016-08-17T00:30:38.838Z,15.8
2016-08-17T00:30:49.570Z,15.8
2016-08-17T00:30:59.574Z,15.8
2016-08-17T00:31:09.577Z,15.8
2016-08-17T00:31:19.581Z,15.8
2016-08-17T00:31:29.579Z,15.8
2016-08-17T00:31:39.583Z,15.8
2016-08-17T00:31:49.590Z,15.7
2016-08-17T00:31:59.601Z,15.7
2016-08-17T00:32:09.594Z,15.8
2016-08-17T00:32:19.597Z,15.7
2016-08-17T00:32:29.605Z,15.7
2016-08-17T00:32:39.606Z,15.7
2016-08-17T00:32:49.615Z,15.7
2016-08-17T00:32:59.611Z,15.7
2016-08-17T00:33:09.614Z,15.7
2016-08-17T00:33:19.620Z,15.7
2016-08-17T00:33:29.619Z,15.7
2016-08-17T00:33:39.626Z,15.7
2016-08-17T00:33:49.626Z,15.7
2016-08-17T00:33:59.635Z,15.7
2016-08-17T00:34:09.630Z,15.7
2016-08-17T00:34:19.633Z,15.7
2016-08-17T00:34:29.640Z,15.7
2016-08-17T00:34:39.639Z,15.7
2016-08-17T00:34:49.649Z,15.7
2016-08-17T00:34:59.650Z,15.7
2016-08-17T00:35:09.654Z,15.7
2016-08-17T00:35:19.655Z,15.7
2016-08-17T00:35:29.656Z,15.7
2016-08-17T00:35:39.661Z,15.7
2016-08-17T00:35:49.662Z,15.7
2016-08-17T00:35:59.677Z,15.7
2016-08-17T00:36:09.670Z,15.7
2016-08-17T00:36:19.676Z,15.7
2016-08-17T00:36:28.945Z,15.7
2016-08-17T00:36:39.681Z,15.7
2016-08-17T00:36:49.681Z,15.7
2016-08-17T00:36:59.683Z,15.7
2016-08-17T00:37:08.958Z,15.7
2016-08-17T00:37:19.694Z,15.7
2016-08-17T00:37:29.699Z,15.7
2016-08-17T00:37:39.717Z,15.7
2016-08-17T00:37:49.704Z,15.7
2016-08-17T00:37:59.705Z,15.7
2016-08-17T00:38:09.707Z,15.7
2016-08-17T00:38:19.712Z,15.7
2016-08-17T00:38:29.714Z,15.7
2016-08-17T00:38:38.980Z,15.7
2016-08-17T00:38:49.724Z,15.7
2016-08-17T00:38:58.986Z,15.7
2016-08-17T00:39:09.736Z,15.7
2016-08-17T00:39:19.733Z,15.7
2016-08-17T00:39:29.737Z,15.7
2016-08-17T00:39:39.006Z,15.7
2016-08-17T00:39:49.739Z,15.7
2016-08-17T00:39:59.750Z,15.7
2016-08-17T00:40:09.751Z,15.7
2016-08-17T00:40:19.750Z,15.7
2016-08-17T00:40:29.755Z,15.7
2016-08-17T00:40:39.755Z,15.7
2016-08-17T00:40:49.765Z,15.7
2016-08-17T00:40:59.759Z,15.7
2016-08-17T00:41:09.767Z,15.7
2016-08-17T00:41:19.770Z,15.7
2016-08-17T00:41:29.772Z,15.7
2016-08-17T00:41:39.773Z,15.7
2016-08-17T00:41:49.781Z,15.7
2016-08-17T00:41:59.781Z,15.7
2016-08-17T00:42:09.785Z,15.7
2016-08-17T00:42:19.787Z,15.7
2016-08-17T00:42:29.792Z,15.7
2016-08-17T00:42:39.794Z,15.7
2016-08-17T00:42:49.798Z,15.7
2016-08-17T00:42:59.073Z,15.7
2016-08-17T00:43:09.802Z,15.7
2016-08-17T00:43:19.807Z,15.7
2016-08-17T00:43:29.811Z,15.7
2016-08-17T00:43:39.813Z,15.7
2016-08-17T00:43:49.821Z,15.7
2016-08-17T00:43:59.821Z,15.7
2016-08-17T00:44:09.819Z,15.7
2016-08-17T00:44:19.829Z,15.7
2016-08-17T00:44:29.829Z,15.7
2016-08-17T00:44:39.835Z,15.7
2016-08-17T00:44:49.837Z,15.7
2016-08-17T00:44:59.840Z,15.7
2016-08-17T00:45:09.842Z,15.7
2016-08-17T00:45:19.843Z,15.7
2016-08-17T00:45:29.850Z,15.7
2016-08-17T00:45:39.852Z,15.7
2016-08-17T00:45:49.853Z,15.7
2016-08-17T00:45:59.858Z,15.7
2016-08-17T00:46:09.862Z,15.7
2016-08-17T00:46:19.864Z,15.7
2016-08-17T00:46:29.867Z,15.7
2016-08-17T00:46:39.869Z,15.7
2016-08-17T00:46:49.138Z,15.7
2016-08-17T00:46:59.880Z,15.7
2016-08-17T00:47:09.151Z,15.7
2016-08-17T00:47:19.884Z,15.7
2016-08-17T00:47:29.886Z,15.7
2016-08-17T00:47:39.888Z,15.7
2016-08-17T00:47:49.892Z,15.7
2016-08-17T00:47:59.892Z,15.7
2016-08-17T00:48:09.896Z,15.7
2016-08-17T00:48:19.901Z,15.7
2016-08-17T00:48:29.903Z,15.7
2016-08-17T00:48:39.905Z,15.6
2016-08-17T00:48:49.916Z,15.6
2016-08-17T00:48:59.913Z,15.6
2016-08-17T00:49:09.917Z,15.7
2016-08-17T00:49:19.922Z,15.7
2016-08-17T00:49:29.931Z,15.7
2016-08-17T00:49:39.925Z,15.7
2016-08-17T00:49:49.932Z,15.7
2016-08-17T00:49:59.937Z,15.7
2016-08-17T00:50:09.936Z,15.6
2016-08-17T00:50:19.961Z,15.6
2016-08-17T00:50:29.943Z,15.6
2016-08-17T00:50:39.943Z,15.6
2016-08-17T00:50:49.946Z,15.6
2016-08-17T00:50:59.950Z,15.6
2016-08-17T00:51:09.957Z,15.6
2016-08-17T00:51:19.957Z,15.6
2016-08-17T00:51:29.965Z,15.6
2016-08-17T00:51:39.966Z,15.6
2016-08-17T00:51:49.975Z,15.6
2016-08-17T00:51:59.972Z,15.6
2016-08-17T00:52:09.979Z,15.6
2016-08-17T00:52:19.979Z,15.6
2016-08-17T00:52:29.995Z,15.6
2016-08-17T00:52:39.985Z,15.6
2016-08-17T00:52:49.985Z,15.6
2016-08-17T00:52:59.989Z,15.6
2016-08-17T00:53:09.990Z,15.6
2016-08-17T00:53:19.999Z,15.6
2016-08-17T00:53:29.999Z,15.6
2016-08-17T00:53:40.005Z,15.6
2016-08-17T00:53:50.007Z,15.6
2016-08-17T00:54:00.008Z,15.6
2016-08-17T00:54:10.012Z,15.6
2016-08-17T00:54:20.016Z,15.6
2016-08-17T00:54:30.021Z,15.6
2016-08-17T00:54:40.025Z,15.6
2016-08-17T00:54:50.022Z,15.6
2016-08-17T00:55:00.030Z,15.6
2016-08-17T00:55:10.033Z,15.6
2016-08-17T00:55:20.036Z,15.6
2016-08-17T00:55:30.033Z,15.6
2016-08-17T00:55:40.041Z,15.6
2016-08-17T00:55:50.042Z,15.6
2016-08-17T00:56:00.060Z,15.6
2016-08-17T00:56:10.047Z,15.6
2016-08-17T00:56:20.054Z,15.6
2016-08-17T00:56:29.320Z,15.6
2016-08-17T00:56:40.060Z,15.6
2016-08-17T00:56:50.064Z,15.6
2016-08-17T00:57:00.067Z,15.6
2016-08-17T00:57:10.077Z,15.6
2016-08-17T00:57:20.081Z,15.6
2016-08-17T00:57:30.076Z,15.6
2016-08-17T00:57:40.076Z,15.6
2016-08-17T00:57:50.079Z,15.6
2016-08-17T00:58:00.086Z,15.6
2016-08-17T00:58:10.086Z,15.6
2016-08-17T00:58:20.091Z,15.6
2016-08-17T00:58:30.092Z,15.6
2016-08-17T00:58:40.103Z,15.6
2016-08-17T00:58:50.103Z,15.6
2016-08-17T00:59:00.103Z,15.6
2016-08-17T00:59:10.110Z,15.6
2016-08-17T00:59:20.113Z,15.6
2016-08-17T00:59:30.117Z,15.6
2016-08-17T00:59:40.117Z,15.6
2016-08-17T00:59:50.121Z,15.6
2016-08-17T01:00:00.121Z,15.6
2016-08-17T01:00:10.122Z,15.6
2016-08-17T01:00:20.126Z,15.6
2016-08-17T01:00:30.146Z,15.6
2016-08-17T01:00:40.137Z,15.6
2016-08-17T01:00:50.143Z,15.6
2016-08-17T01:01:00.145Z,15.6
2016-08-17T01:01:10.146Z,15.6
2016-08-17T01:01:20.149Z,15.6
2016-08-17T01:01:30.149Z,15.6
2016-08-17T01:01:40.158Z,15.6
2016-08-17T01:01:50.159Z,15.6
2016-08-17T01:02:00.159Z,15.6
2016-08-17T01:02:10.164Z,15.6
2016-08-17T01:02:20.177Z,15.6
2016-08-17T01:02:30.168Z,15.6
2016-08-17T01:02:40.174Z,15.6
2016-08-17T01:02:49.440Z,15.6
2016-08-17T01:03:00.185Z,15.6
2016-08-17T01:03:10.183Z,15.6
2016-08-17T01:03:20.185Z,15.6
2016-08-17T01:03:30.189Z,15.6
2016-08-17T01:03:40.197Z,15.6
2016-08-17T01:03:50.195Z,15.6
2016-08-17T01:04:00.207Z,15.6
2016-08-17T01:04:10.204Z,15.6
2016-08-17T01:04:20.203Z,15.6
2016-08-17T01:04:30.208Z,15.6
2016-08-17T01:04:40.208Z,15.6
2016-08-17T01:04:50.216Z,15.6
2016-08-17T01:05:00.227Z,15.6
2016-08-17T01:05:10.225Z,15.6
2016-08-17T01:05:20.224Z,15.6
2016-08-17T01:05:30.227Z,15.6
2016-08-17T01:05:40.229Z,15.6
2016-08-17T01:05:50.246Z,15.6
2016-08-17T01:06:00.240Z,15.6
2016-08-17T01:06:10.242Z,15.6
2016-08-17T01:06:20.245Z,15.6
2016-08-17T01:06:30.249Z,15.6
2016-08-17T01:06:40.265Z,15.6
2016-08-17T01:06:50.253Z,15.6
2016-08-17T01:07:00.257Z,15.6
2016-08-17T01:07:10.257Z,15.6
2016-08-17T01:07:20.261Z,15.6
2016-08-17T01:07:30.266Z,15.6
2016-08-17T01:07:40.266Z,15.6
2016-08-17T01:07:50.275Z,15.6
2016-08-17T01:08:00.284Z,15.6
2016-08-17T01:08:10.278Z,15.6
2016-08-17T01:08:20.281Z,15.6
2016-08-17T01:08:30.283Z,15.6
2016-08-17T01:08:40.289Z,15.6
2016-08-17T01:08:50.285Z,15.6
2016-08-17T01:09:00.298Z,15.6
2016-08-17T01:09:10.295Z,15.6
2016-08-17T01:09:20.305Z,15.6
2016-08-17T01:09:30.300Z,15.6
2016-08-17T01:09:39.570Z,15.6
2016-08-17T01:09:50.308Z,15.6
2016-08-17T01:10:00.316Z,15.6
2016-08-17T01:10:10.316Z,15.6
2016-08-17T01:10:20.317Z,15.6
2016-08-17T01:10:30.322Z,15.5
2016-08-17T01:10:40.334Z,15.5
2016-08-17T01:10:49.590Z,15.5
2016-08-17T01:11:00.329Z,15.5
2016-08-17T01:11:10.330Z,15.5
2016-08-17T01:11:20.336Z,15.5
2016-08-17T01:11:30.339Z,15.5
2016-08-17T01:11:40.343Z,15.5
2016-08-17T01:11:49.620Z,15.5
2016-08-17T01:11:59.615Z,15.5
2016-08-17T01:12:10.355Z,15.5
2016-08-17T01:12:20.362Z,15.5
2016-08-17T01:12:30.359Z,15.5
2016-08-17T01:12:40.363Z,15.5
2016-08-17T01:12:50.369Z,15.5
2016-08-17T01:13:00.368Z,15.5
2016-08-17T01:13:10.377Z,15.5
2016-08-17T01:13:20.393Z,15.5
2016-08-17T01:13:30.379Z,15.5
2016-08-17T01:13:40.382Z,15.5
2016-08-17T01:13:50.392Z,15.5
2016-08-17T01:14:00.388Z,15.5
2016-08-17T01:14:10.393Z,15.5
2016-08-17T01:14:20.395Z,15.5
2016-08-17T01:14:30.401Z,15.5
2016-08-17T01:14:40.403Z,15.5
2016-08-17T01:14:50.401Z,15.5
2016-08-17T01:15:00.408Z,15.5
2016-08-17T01:15:09.672Z,15.4
2016-08-17T01:15:20.412Z,15.4
2016-08-17T01:15:30.416Z,15.4
2016-08-17T01:15:40.416Z,15.4
2016-08-17T01:15:50.423Z,15.4
2016-08-17T01:16:00.434Z,15.4
2016-08-17T01:16:09.692Z,15.4
2016-08-17T01:16:20.433Z,15.4
2016-08-17T01:16:30.436Z,15.4
2016-08-17T01:16:40.447Z,15.4
2016-08-17T01:16:50.442Z,15.4
2016-08-17T01:17:00.446Z,15.4
2016-08-17T01:17:09.721Z,15.4
2016-08-17T01:17:20.462Z,15.4
2016-08-17T01:17:30.466Z,15.4
2016-08-17T01:17:40.457Z,15.4
2016-08-17T01:17:50.460Z,15.4
2016-08-17T01:18:00.462Z,15.4
2016-08-17T01:18:10.468Z,15.4
2016-08-17T01:18:20.468Z,15.4
2016-08-17T01:18:30.477Z,15.4
2016-08-17T01:18:40.476Z,15.4
2016-08-17T01:18:50.479Z,15.4
2016-08-17T01:19:00.484Z,15.4
2016-08-17T01:19:10.492Z,15.4
2016-08-17T01:19:20.491Z,15.4
2016-08-17T01:19:30.493Z,15.4
2016-08-17T01:19:40.496Z,15.4
2016-08-17T01:19:50.499Z,15.4
2016-08-17T01:20:00.502Z,15.4
2016-08-17T01:20:10.505Z,15.4
2016-08-17T01:20:20.505Z,15.4
2016-08-17T01:20:30.513Z,15.3
2016-08-17T01:20:40.515Z,15.3
2016-08-17T01:20:50.521Z,15.3
2016-08-17T01:21:00.522Z,15.4
2016-08-17T01:21:09.786Z,15.4
2016-08-17T01:21:20.531Z,15.4
2016-08-17T01:21:30.533Z,15.4
2016-08-17T01:21:40.534Z,15.4
2016-08-17T01:21:50.537Z,15.4
2016-08-17T01:22:00.541Z,15.3
2016-08-17T01:22:10.544Z,15.3
2016-08-17T01:22:20.548Z,15.4
2016-08-17T01:22:30.556Z,15.3
2016-08-17T01:22:40.558Z,15.4
2016-08-17T01:22:50.553Z,15.3
2016-08-17T01:23:00.555Z,15.4
2016-08-17T01:23:10.560Z,15.4
2016-08-17T01:23:19.836Z,15.4
2016-08-17T01:23:29.837Z,15.4
2016-08-17T01:23:40.570Z,15.4
2016-08-17T01:23:50.582Z,15.4
2016-08-17T01:24:00.577Z,15.4
2016-08-17T01:24:10.586Z,15.4
2016-08-17T01:24:20.585Z,15.4
2016-08-17T01:24:30.586Z,15.4
2016-08-17T01:24:40.591Z,15.4
2016-08-17T01:24:50.594Z,15.4
2016-08-17T01:25:00.597Z,15.4
2016-08-17T01:25:10.600Z,15.4
2016-08-17T01:25:20.616Z,15.4
2016-08-17T01:25:30.603Z,15.4
2016-08-17T01:25:39.870Z,15.4
2016-08-17T01:25:50.613Z,15.4
2016-08-17T01:26:00.616Z,15.4
2016-08-17T01:26:10.620Z,15.4
2016-08-17T01:26:20.624Z,15.4
2016-08-17T01:26:30.626Z,15.4
2016-08-17T01:26:40.633Z,15.3
2016-08-17T01:26:50.633Z,15.3
2016-08-17T01:27:00.635Z,15.3
2016-08-17T01:27:10.643Z,15.3
2016-08-17T01:27:20.641Z,15.3
2016-08-17T01:27:30.645Z,15.3
2016-08-17T01:27:40.650Z,15.3
2016-08-17T01:27:50.649Z,15.3
2016-08-17T01:28:00.656Z,15.3
2016-08-17T01:28:10.655Z,15.3
2016-08-17T01:28:20.660Z,15.3
2016-08-17T01:28:30.662Z,15.3
2016-08-17T01:28:40.667Z,15.3
2016-08-17T01:28:50.670Z,15.3
2016-08-17T01:29:00.667Z,15.3
2016-08-17T01:29:10.677Z,15.3
2016-08-17T01:29:20.680Z,15.3
2016-08-17T01:29:30.682Z,15.3
2016-08-17T01:29:40.682Z,15.3
2016-08-17T01:29:50.691Z,15.3
2016-08-17T01:30:00.690Z,15.3
2016-08-17T01:30:10.694Z,15.3
2016-08-17T01:30:20.706Z,15.3
2016-08-17T01:30:29.969Z,15.3
2016-08-17T01:30:40.705Z,15.3
2016-08-17T01:30:50.704Z,15.3
2016-08-17T01:31:00.712Z,15.3
2016-08-17T01:31:10.713Z,15.3
2016-08-17T01:31:20.715Z,15.3
2016-08-17T01:31:30.720Z,15.3
2016-08-17T01:31:40.722Z,15.3
2016-08-17T01:31:50.727Z,15.3
2016-08-17T01:32:00.728Z,15.3
2016-08-17T01:32:10.725Z,15.3
2016-08-17T01:32:20.733Z,15.3
2016-08-17T01:32:30.736Z,15.3
2016-08-17T01:32:40.736Z,15.3
2016-08-17T01:32:50.744Z,15.3
2016-08-17T01:33:00.747Z,15.3
2016-08-17T01:33:10.748Z,15.3
2016-08-17T01:33:20.753Z,15.3
2016-08-17T01:33:30.757Z,15.3
2016-08-17T01:33:40.759Z,15.3
2016-08-17T01:33:50.764Z,15.3
2016-08-17T01:34:00.770Z,15.3
2016-08-17T01:34:10.771Z,15.3
2016-08-17T01:34:20.772Z,15.3
2016-08-17T01:34:30.778Z,15.3
2016-08-17T01:34:40.778Z,15.3
2016-08-17T01:34:50.787Z,15.3
2016-08-17T01:35:00.788Z,15.3
2016-08-17T01:35:10.788Z,15.3
2016-08-17T01:35:20.789Z,15.3
2016-08-17T01:35:30.066Z,15.3
2016-08-17T01:35:40.800Z,15.3
2016-08-17T01:35:50.803Z,15.3
2016-08-17T01:36:00.805Z,15.3
2016-08-17T01:36:10.812Z,15.3
2016-08-17T01:36:20.813Z,15.3
2016-08-17T01:36:30.815Z,15.3
2016-08-17T01:36:40.818Z,15.3
2016-08-17T01:36:50.817Z,15.3
2016-08-17T01:37:00.823Z,15.3
2016-08-17T01:37:10.828Z,15.3
2016-08-17T01:37:20.828Z,15.3
2016-08-17T01:37:30.842Z,15.3
2016-08-17T01:37:40.842Z,15.3
2016-08-17T01:37:50.842Z,15.3
2016-08-17T01:38:00.839Z,15.3
2016-08-17T01:38:10.845Z,15.3
2016-08-17T01:38:20.849Z,15.3
2016-08-17T01:38:30.849Z,15.3
2016-08-17T01:38:40.852Z,15.3
2016-08-17T01:38:50.857Z,15.3
2016-08-17T01:39:00.863Z,15.3
2016-08-17T01:39:10.127Z,15.3
2016-08-17T01:39:20.865Z,15.3
2016-08-17T01:39:30.867Z,15.3
2016-08-17T01:39:40.874Z,15.3
2016-08-17T01:39:50.878Z,15.3
2016-08-17T01:40:00.880Z,15.3
2016-08-17T01:40:10.888Z,15.3
2016-08-17T01:40:20.884Z,15.3
2016-08-17T01:40:30.888Z,15.3
2016-08-17T01:40:40.895Z,15.3
2016-08-17T01:40:50.897Z,15.3
2016-08-17T01:41:00.897Z,15.2
2016-08-17T01:41:10.902Z,15.3
2016-08-17T01:41:20.906Z,15.3
2016-08-17T01:41:30.908Z,15.3
2016-08-17T01:41:40.921Z,15.3
2016-08-17T01:41:50.916Z,15.3
2016-08-17T01:42:00.914Z,15.2
2016-08-17T01:42:10.923Z,15.3
2016-08-17T01:42:20.921Z,15.3
2016-08-17T01:42:30.926Z,15.3
2016-08-17T01:42:40.935Z,15.3
2016-08-17T01:42:50.208Z,15.2
2016-08-17T01:43:00.934Z,15.2
2016-08-17T01:43:10.943Z,15.2
2016-08-17T01:43:20.942Z,15.2
2016-08-17T01:43:30.944Z,15.2
2016-08-17T01:43:40.951Z,15.2
2016-08-17T01:43:50.950Z,15.2
2016-08-17T01:44:00.957Z,15.2
2016-08-17T01:44:10.957Z,15.2
2016-08-17T01:44:20.963Z,15.2
2016-08-17T01:44:30.966Z,15.2
2016-08-17T01:44:40.234Z,15.2
2016-08-17T01:44:50.975Z,15.2
2016-08-17T01:45:00.976Z,15.2
2016-08-17T01:45:10.978Z,15.2
2016-08-17T01:45:20.978Z,15.2
2016-08-17T01:45:30.985Z,15.2
2016-08-17T01:45:40.984Z,15.2
2016-08-17T01:45:51.000Z,15.2
2016-08-17T01:46:01.001Z,15.2
2016-08-17T01:46:10.996Z,15.2
2016-08-17T01:46:20.997Z,15.2
2016-08-17T01:46:31.004Z,15.2
2016-08-17T01:46:40.269Z,15.2
2016-08-17T01:46:51.009Z,15.2
2016-08-17T01:47:01.021Z,15.2
2016-08-17T01:47:11.018Z,15.2
2016-08-17T01:47:21.021Z,15.2
2016-08-17T01:47:31.023Z,15.2
2016-08-17T01:47:41.026Z,15.2
2016-08-17T01:47:50.289Z,15.2
2016-08-17T01:48:01.031Z,15.2
2016-08-17T01:48:11.034Z,15.2
2016-08-17T01:48:21.037Z,15.2
2016-08-17T01:48:31.040Z,15.2
2016-08-17T01:48:41.041Z,15.2
2016-08-17T01:48:51.046Z,15.2
2016-08-17T01:49:01.048Z,15.2
2016-08-17T01:49:11.051Z,15.2
2016-08-17T01:49:21.058Z,15.2
2016-08-17T01:49:31.055Z,15.2
2016-08-17T01:49:41.058Z,15.2
2016-08-17T01:49:51.065Z,15.2
2016-08-17T01:50:01.067Z,15.2
2016-08-17T01:50:11.068Z,15.2
2016-08-17T01:50:21.074Z,15.2
2016-08-17T01:50:31.077Z,15.2
2016-08-17T01:50:41.079Z,15.2
2016-08-17T01:50:51.089Z,15.2
2016-08-17T01:51:01.089Z,15.2
2016-08-17T01:51:11.089Z,15.2
2016-08-17T01:51:21.093Z,15.2
2016-08-17T01:51:31.097Z,15.2
2016-08-17T01:51:41.097Z,15.2
2016-08-17T01:51:51.100Z,15.2
2016-08-17T01:52:01.103Z,15.2
2016-08-17T01:52:11.108Z,15.1
2016-08-17T01:52:21.119Z,15.2
2016-08-17T01:52:31.117Z,15.1
2016-08-17T01:52:41.114Z,15.1
2016-08-17T01:52:51.123Z,15.2
2016-08-17T01:53:01.124Z,15.2
2016-08-17T01:53:11.124Z,15.1
2016-08-17T01:53:20.404Z,15.2
2016-08-17T01:53:31.134Z,15.2
2016-08-17T01:53:41.134Z,15.2
2016-08-17T01:53:51.135Z,15.2
2016-08-17T01:54:01.143Z,15.2
2016-08-17T01:54:11.147Z,15.1
2016-08-17T01:54:21.149Z,15.2
2016-08-17T01:54:31.154Z,15.1
2016-08-17T01:54:41.157Z,15.1
2016-08-17T01:54:51.158Z,15.2
2016-08-17T01:55:01.164Z,15.1
2016-08-17T01:55:11.165Z,15.1
2016-08-17T01:55:21.186Z,15.1
2016-08-17T01:55:31.171Z,15.1
2016-08-17T01:55:41.175Z,15.2
2016-08-17T01:55:51.173Z,15.1
2016-08-17T01:56:01.179Z,15.1
2016-08-17T01:56:11.187Z,15.1
2016-08-17T01:56:21.186Z,15.1
2016-08-17T01:56:30.460Z,15.1
2016-08-17T01:56:41.200Z,15.1
2016-08-17T01:56:51.195Z,15.1
2016-08-17T01:57:01.199Z,15.1
2016-08-17T01:57:11.200Z,15.1
2016-08-17T01:57:21.204Z,15.1
2016-08-17T01:57:31.205Z,15.1
2016-08-17T01:57:41.211Z,15.1
2016-08-17T01:57:51.214Z,15.1
2016-08-17T01:58:01.217Z,15.1
2016-08-17T01:58:11.222Z,15.1
2016-08-17T01:58:21.221Z,15.1
2016-08-17T01:58:31.231Z,15.1
2016-08-17T01:58:41.228Z,15.1
2016-08-17T01:58:51.235Z,15.1
2016-08-17T01:59:01.238Z,15.1
2016-08-17T01:59:11.239Z,15.1
2016-08-17T01:59:21.243Z,15.1
2016-08-17T01:59:30.509Z,15.1
2016-08-17T01:59:41.250Z,15.1
2016-08-17T01:59:51.253Z,15.1
2016-08-17T02:00:01.255Z,15.1
2016-08-17T02:00:11.257Z,15.1
2016-08-17T02:00:21.263Z,15.1
2016-08-17T02:00:31.267Z,15.1
2016-08-17T02:00:41.267Z,15.1
2016-08-17T02:00:51.269Z,15.1
2016-08-17T02:01:01.273Z,15.1
2016-08-17T02:01:11.276Z,15.1
2016-08-17T02:01:21.282Z,15.1
2016-08-17T02:01:31.290Z,15.1
2016-08-17T02:01:41.285Z,15.1
2016-08-17T02:01:51.300Z,15.1
2016-08-17T02:02:01.295Z,15.1
2016-08-17T02:02:11.296Z,15.1
2016-08-17T02:02:20.575Z,15.1
2016-08-17T02:02:31.299Z,15.1
2016-08-17T02:02:41.305Z,15.1
2016-08-17T02:02:51.310Z,15.1
2016-08-17T02:03:01.315Z,15.1
2016-08-17T02:03:11.317Z,15.1
2016-08-17T02:03:21.319Z,15.1
2016-08-17T02:03:30.593Z,15.1
2016-08-17T02:03:41.326Z,15.1
2016-08-17T02:03:51.329Z,15.1
2016-08-17T02:04:01.332Z,15.1
2016-08-17T02:04:11.339Z,15.1
2016-08-17T02:04:21.337Z,15.1
2016-08-17T02:04:31.339Z,15.1
2016-08-17T02:04:41.342Z,15.1
2016-08-17T02:04:51.348Z,15.1
2016-08-17T02:05:00.625Z,15.1
2016-08-17T02:05:11.350Z,15.1
2016-08-17T02:05:21.365Z,15.1
2016-08-17T02:05:31.357Z,15.1
2016-08-17T02:05:41.372Z,15.1
2016-08-17T02:05:51.365Z,15.1
2016-08-17T02:06:01.366Z,15.1
2016-08-17T02:06:11.375Z,15.1
2016-08-17T02:06:21.370Z,15.1
2016-08-17T02:06:31.380Z,15
2016-08-17T02:06:41.377Z,15
2016-08-17T02:06:51.385Z,15
2016-08-17T02:07:01.385Z,15
2016-08-17T02:07:11.391Z,15
2016-08-17T02:07:21.391Z,15
2016-08-17T02:07:31.396Z,15
2016-08-17T02:07:41.400Z,15
2016-08-17T02:07:51.404Z,15
2016-08-17T02:08:01.405Z,15
2016-08-17T02:08:11.406Z,15
2016-08-17T02:08:21.414Z,15
2016-08-17T02:08:31.416Z,15
2016-08-17T02:08:41.420Z,15
2016-08-17T02:08:51.437Z,15
2016-08-17T02:09:01.425Z,15
2016-08-17T02:09:11.433Z,15
2016-08-17T02:09:21.437Z,15
2016-08-17T02:09:31.447Z,15
2016-08-17T02:09:41.438Z,15
2016-08-17T02:09:51.453Z,15
2016-08-17T02:10:01.446Z,15
2016-08-17T02:10:11.447Z,15
2016-08-17T02:10:20.719Z,15
2016-08-17T02:10:31.455Z,15
2016-08-17T02:10:41.460Z,15
2016-08-17T02:10:51.459Z,15
2016-08-17T02:11:01.465Z,15
2016-08-17T02:11:11.463Z,15
2016-08-17T02:11:21.465Z,15
2016-08-17T02:11:31.469Z,15
2016-08-17T02:11:41.472Z,15
2016-08-17T02:11:51.480Z,15
2016-08-17T02:12:01.479Z,15
2016-08-17T02:12:11.479Z,15
2016-08-17T02:12:21.483Z,15
2016-08-17T02:12:31.489Z,15
2016-08-17T02:12:41.496Z,15
2016-08-17T02:12:51.493Z,15
2016-08-17T02:13:01.503Z,15
2016-08-17T02:13:11.499Z,15
2016-08-17T02:13:21.510Z,15
2016-08-17T02:13:31.504Z,15
2016-08-17T02:13:41.515Z,15
2016-08-17T02:13:51.513Z,15
2016-08-17T02:14:00.781Z,15